KIMS

Madison Municipal Airport

Madison, Indiana, USA
METAR KIMS 180655Z AUTO 00000KT 10SM SCT021 01/M01 A3025 RMK AO1
Observed Flight Rules
Feb-18 @ 06:55 UTC (19 minutes ago) Visual Flight Rules
Wind Visibility Clouds
Calm 10 miles
  • Scattered at 2,100' AGL
Temperatures Readings
Current 1°C / 34°F
Dewpoint -1°C / 30°F
Humidity 87%
Altimeter 30.25" Hg
Pressure 1024 hPa
Elevation 250
METAR KIMS 180655Z AUTO 00000KT 10SM SCT021 01/M01 A3025 RMK AO1
Observed Flight Rules
Feb-18 @ 06:55 UTC
(19 minutes ago)
VFR
Wind Visibility
Calm 10 miles
Clouds
  • Scattered at 2,100' AGL
Temperature Dewpoint
1°C / 34°F -1°C / 30°F
Humidity Altimeter Pressure
87% 30.25" Hg 1024 hPa